Time;durP1;ratioP1;P1;durP2;ratioP2;P2;SDS_P1;SDS_P2;PMS_P1;PMS_P2;Temp;Humidity;BMP_temperature;BMP_pressure;BME280_temperature;BME280_humidity;BME280_pressure;Samples;Min_cycle;Max_cycle;Signal;HPM_P1;HPM_P2
2021/11/22 00:02:09;;;;;;;1999.90;999.90;;;;;;;7.33;79.17;101046.41;15624554;28;20057;-61
2021/11/22 00:09:44;;;;;;;1999.90;999.90;;;;;;;7.60;78.77;101042.88;15672872;28;20045;-59
2021/11/22 00:17:17;;;;;;;1999.90;999.90;;;;;;;7.81;78.14;101060.81;15664325;28;20044;-60
2021/11/22 00:24:51;;;;;;;1999.90;999.90;;;;;;;7.63;79.21;101064.50;15663029;28;20273;-58
2021/11/22 00:32:24;;;;;;;1999.90;999.90;;;;;;;7.67;79.45;101066.34;15657872;28;20425;-57
2021/11/22 00:40:35;;;;;;;1999.90;999.90;;;;;;;7.90;78.78;101078.44;15549798;28;20081;-57
2021/11/22 00:48:08;;;;;;;1999.90;999.90;;;;;;;7.81;79.28;101083.03;15659256;28;20045;-60
2021/11/22 00:55:43;;;;;;;1999.90;999.90;;;;;;;7.92;80.26;101101.22;15649002;28;20497;-62
2021/11/22 01:03:16;;;;;;;1999.90;999.90;;;;;;;8.23;78.28;101112.56;15647962;28;20198;-60
2021/11/22 01:10:50;;;;;;;1999.90;999.90;;;;;;;8.40;77.65;101125.88;15649080;28;20045;-62
2021/11/22 01:18:23;;;;;;;1999.90;999.90;;;;;;;8.30;78.04;101154.69;15628946;28;20053;-58
2021/11/22 01:25:59;;;;;;;1999.90;999.90;;;;;;;8.18;78.39;101162.69;15646185;28;20052;-58
2021/11/22 01:33:31;;;;;;;1999.90;999.90;;;;;;;8.26;77.56;101162.00;15657285;28;20045;-61
2021/11/22 01:41:06;;;;;;;1999.90;999.90;;;;;;;7.97;78.68;101169.75;15655778;28;20131;-60
2021/11/22 01:48:39;;;;;;;1999.90;999.90;;;;;;;7.96;78.94;101182.00;15652990;28;20127;-59
2021/11/22 01:56:14;;;;;;;1999.90;999.90;;;;;;;7.76;78.74;101195.09;15643862;28;20056;-59
2021/11/22 02:03:47;;;;;;;1999.90;999.90;;;;;;;7.67;80.14;101210.81;15650513;28;20383;-61
2021/11/22 02:11:21;;;;;;;1999.90;999.90;;;;;;;7.85;79.69;101227.75;15632892;28;20461;-61
2021/11/22 02:18:55;;;;;;;1999.90;999.90;;;;;;;7.76;80.04;101230.41;15638179;28;20470;-61
2021/11/22 02:26:30;;;;;;;;;;;;;;;7.64;80.38;101239.19;15630982;28;20607;-60
2021/11/22 02:34:07;;;;;;;1999.90;999.90;;;;;;;7.88;79.20;101238.25;15631880;28;20039;-62
2021/11/22 02:41:41;;;;;;;1999.90;999.90;;;;;;;7.66;80.21;101245.25;15636173;28;20132;-62
2021/11/22 02:49:15;;;;;;;1999.90;999.90;;;;;;;7.73;79.05;101259.59;15629404;28;20119;-61
2021/11/22 02:56:49;;;;;;;1999.90;999.90;;;;;;;7.80;78.26;101256.44;15650328;28;20459;-61
2021/11/22 03:04:31;;;;;;;1999.90;999.90;;;;;;;7.44;79.57;101270.84;15639303;28;20513;-62
2021/11/22 03:12:09;;;;;;;1999.90;999.90;;;;;;;7.51;79.27;101274.09;15673903;28;20057;-62
2021/11/22 03:19:42;;;;;;;1999.90;999.90;;;;;;;7.44;80.15;101293.06;15626776;28;20048;-60
2021/11/22 03:27:17;;;;;;;1999.90;999.90;;;;;;;7.56;79.22;101305.69;15647194;28;20045;-58
2021/11/22 03:34:51;;;;;;;1999.90;999.90;;;;;;;7.59;79.37;101318.97;15621387;28;20507;-62
2021/11/22 03:42:29;;;;;;;1999.90;999.90;;;;;;;7.73;78.96;101323.50;15652953;28;20048;-61
2021/11/22 03:50:02;;;;;;;1999.90;999.90;;;;;;;7.73;79.48;101351.28;15635873;28;20431;-62
2021/11/22 03:57:36;;;;;;;1999.90;999.90;;;;;;;7.74;79.27;101352.13;15637757;28;20049;-59
2021/11/22 04:05:09;;;;;;;1999.90;999.90;;;;;;;7.77;78.83;101371.78;15620426;28;20138;-57
2021/11/22 04:12:43;;;;;;;1999.90;999.90;;;;;;;7.96;78.25;101366.25;15665330;28;20181;-61
2021/11/22 04:20:16;;;;;;;1999.90;999.90;;;;;;;7.91;78.29;101384.94;15623260;28;20136;-59
2021/11/22 04:27:51;;;;;;;;;;;;;;;8.22;76.59;101405.59;15647198;28;20069;-57
2021/11/22 04:35:24;;;;;;;1999.90;999.90;;;;;;;8.12;77.57;101419.66;15634449;28;19963;-56
2021/11/22 04:42:58;;;;;;;1999.90;999.90;;;;;;;8.04;76.97;101426.72;15676901;28;20453;-56
2021/11/22 04:50:32;;;;;;;1999.90;999.90;;;;;;;7.60;77.94;101443.66;15669718;28;20124;-60
2021/11/22 04:58:08;;;;;;;1999.90;999.90;;;;;;;7.69;77.84;101468.84;15660869;28;20037;-59
2021/11/22 05:05:41;;;;;;;1999.90;999.90;;;;;;;7.76;77.87;101469.31;15668466;28;20090;-61
2021/11/22 05:13:18;;;;;;;1999.90;999.90;;;;;;;7.71;77.92;101467.44;15639790;28;20115;-62
2021/11/22 05:20:52;;;;;;;1999.90;999.90;;;;;;;7.29;79.51;101487.59;15652421;28;20049;-61
2021/11/22 05:28:27;;;;;;;1999.90;999.90;;;;;;;7.47;78.50;101499.91;15652318;28;20150;-59
2021/11/22 05:35:59;;;;;;;1999.90;999.90;;;;;;;7.12;78.75;101485.25;15647577;28;20304;-61
2021/11/22 05:43:36;;;;;;;1999.90;999.90;;;;;;;7.02;78.92;101512.28;15668077;28;20041;-61
2021/11/22 05:51:15;;;;;;;1999.90;999.90;;;;;;;6.93;78.12;101514.84;15619003;28;20159;-58
2021/11/22 05:58:50;;;;;;;1999.90;999.90;;;;;;;6.84;77.03;101538.75;15659460;28;20120;-62
2021/11/22 06:06:23;;;;;;;1999.90;999.90;;;;;;;6.70;77.07;101546.06;15639014;28;20037;-61
2021/11/22 06:13:58;;;;;;;1999.90;999.90;;;;;;;6.74;76.47;101552.69;15669255;28;20080;-59
2021/11/22 06:21:31;;;;;;;1999.90;999.90;;;;;;;6.58;75.84;101561.13;15630920;28;20514;-59
2021/11/22 06:29:05;;;;;;;1999.90;999.90;;;;;;;6.45;75.52;101583.06;15632102;28;20368;-62
2021/11/22 06:36:38;;;;;;;1999.90;999.90;;;;;;;6.45;75.37;101597.75;15672493;28;20045;-58
2021/11/22 06:44:13;;;;;;;1999.90;999.90;;;;;;;6.43;75.58;101610.25;15664006;28;20521;-59
2021/11/22 06:51:48;;;;;;;1999.90;999.90;;;;;;;6.43;74.99;101615.81;15670777;28;20057;-60
2021/11/22 06:59:22;;;;;;;1999.90;999.90;;;;;;;6.29;75.99;101630.28;15672212;28;20403;-61
2021/11/22 07:06:55;;;;;;;1999.90;999.90;;;;;;;6.21;75.53;101643.88;15672074;28;20041;-61
2021/11/22 07:14:29;;;;;;;1999.90;999.90;;;;;;;6.13;75.56;101672.16;15670348;28;20052;-60
2021/11/22 07:22:05;;;;;;;1999.90;999.90;;;;;;;6.05;76.07;101687.44;15672356;28;20045;-59
2021/11/22 07:29:42;;;;;;;1999.90;999.90;;;;;;;6.13;75.73;101688.78;15670796;28;20136;-59
2021/11/22 07:37:15;;;;;;;1999.90;999.90;;;;;;;6.02;75.85;101702.66;15670141;28;20484;-58
2021/11/22 07:44:49;;;;;;;1999.90;999.90;;;;;;;6.31;75.65;101713.97;15653240;28;20049;-59
2021/11/22 07:52:23;;;;;;;1999.90;999.90;;;;;;;6.34;75.64;101732.00;15669738;28;20060;-59
2021/11/22 07:59:57;;;;;;;1999.90;999.90;;;;;;;6.43;74.55;101737.81;15681506;28;20510;-59
2021/11/22 08:07:31;;;;;;;1999.90;999.90;;;;;;;6.47;74.69;101750.00;15680495;28;20041;-57
2021/11/22 08:15:09;;;;;;;1999.90;999.90;;;;;;;6.79;73.73;101771.84;15681081;28;20049;-60
2021/11/22 08:22:42;;;;;;;1999.90;999.90;;;;;;;6.80;73.96;101788.19;15671706;28;20041;-58
2021/11/22 08:30:19;;;;;;;1999.90;999.90;;;;;;;7.60;70.64;101803.94;15674561;28;20067;-57
2021/11/22 08:37:52;;;;;;;1999.90;999.90;;;;;;;8.30;68.22;101818.47;15682129;28;20045;-58
2021/11/22 08:45:26;;;;;;;1999.90;999.90;;;;;;;9.48;63.43;101828.09;15678288;28;20144;-61
2021/11/22 08:52:59;;;;;;;1999.90;999.90;;;;;;;10.36;60.09;101828.47;15678777;28;20067;-59
2021/11/22 09:00:38;;;;;;;1999.90;999.90;;;;;;;11.63;56.06;101839.13;15679265;28;20147;-61
2021/11/22 09:08:11;;;;;;;1999.90;999.90;;;;;;;12.32;54.01;101851.81;15678713;28;20067;-59
2021/11/22 09:15:45;;;;;;;1999.90;999.90;;;;;;;14.21;49.69;101858.53;15680038;28;20069;-57
2021/11/22 09:23:18;;;;;;;1999.90;999.90;;;;;;;14.01;48.48;101859.19;15678794;28;20406;-58
2021/11/22 09:30:52;;;;;;;1999.90;999.90;;;;;;;14.19;47.91;101869.25;15677809;28;20106;-60
2021/11/22 09:38:26;;;;;;;1999.90;999.90;;;;;;;15.52;45.20;101874.75;15710177;28;20140;-60
2021/11/22 09:46:04;;;;;;;1999.90;999.90;;;;;;;15.64;43.66;101876.06;15677145;28;20053;-61
2021/11/22 09:53:38;;;;;;;1999.90;999.90;;;;;;;16.02;42.61;101884.41;15658496;28;20108;-57
2021/11/22 10:01:14;;;;;;;;;;;;;;;15.78;43.19;101882.25;15708654;28;20102;-57
2021/11/22 10:08:47;;;;;;;1999.90;999.90;;;;;;;15.25;44.04;101897.72;15674580;28;19924;-62
2021/11/22 10:16:24;;;;;;;1999.90;999.90;;;;;;;13.02;48.19;101897.91;15672647;28;20087;-61
2021/11/22 10:24:04;;;;;;;1999.90;999.90;;;;;;;13.38;46.47;101895.00;15649120;28;20067;-61
2021/11/22 10:31:39;;;;;;;1999.90;999.90;;;;;;;14.28;44.16;101897.34;15673215;28;20450;-62
2021/11/22 10:39:12;;;;;;;1999.90;999.90;;;;;;;15.71;42.24;101894.03;15673010;28;20155;-60
2021/11/22 10:46:50;;;;;;;1999.90;999.90;;;;;;;14.64;44.01;101895.03;15673037;28;20124;-62
2021/11/22 10:54:23;;;;;;;1999.90;999.90;;;;;;;15.96;39.70;101897.06;15671154;28;20049;-62
2021/11/22 11:01:57;;;;;;;1999.90;999.90;;;;;;;15.88;39.20;101895.94;15672552;28;20067;-61
2021/11/22 11:09:33;;;;;;;1999.90;999.90;;;;;;;17.39;36.94;101901.16;15670295;28;20049;-61
2021/11/22 11:17:17;;;;;;;1999.90;999.90;;;;;;;17.02;37.69;101914.41;15670295;28;20036;-60
2021/11/22 11:24:50;;;;;;;1999.90;999.90;;;;;;;17.86;37.14;101912.06;15670248;28;20154;-61
2021/11/22 11:32:25;;;;;;;1999.90;999.90;;;;;;;13.77;41.18;101921.38;15677236;28;20064;-61
2021/11/22 11:40:18;;;;;;;1999.90;999.90;;;;;;;14.13;41.02;101918.28;15681889;28;20155;-62
2021/11/22 11:48:07;;;;;;;1999.90;999.90;;;;;;;14.50;39.01;101933.72;15681383;28;20521;-61
2021/11/22 11:55:42;;;;;;;1999.90;999.90;;;;;;;12.47;44.61;101937.38;15654475;28;20828;-61
2021/11/22 12:03:16;;;;;;;1999.90;999.90;;;;;;;11.08;47.46;101943.34;15714483;28;20055;-59
2021/11/22 12:10:50;;;;;;;1999.90;999.90;;;;;;;10.63;49.38;101956.97;15682066;28;20502;-61
2021/11/22 12:18:27;;;;;;;1999.90;999.90;;;;;;;10.84;47.85;101954.66;15680029;28;20502;-60
2021/11/22 12:26:02;;;;;;;1999.90;999.90;;;;;;;16.89;36.33;101957.81;15681376;28;20033;-60
2021/11/22 12:33:38;;;;;;;1999.90;999.90;;;;;;;12.58;44.19;101952.78;15681017;28;20041;-62
2021/11/22 12:41:22;;;;;;;1999.90;999.90;;;;;;;12.40;45.55;101950.97;15679493;28;20063;-62
2021/11/22 12:48:56;;;;;;;1999.90;999.90;;;;;;;20.13;31.03;101959.31;15680658;28;20552;-62
2021/11/22 12:56:32;;;;;;;1999.90;999.90;;;;;;;17.54;34.59;101958.94;15680077;28;20513;-60
2021/11/22 13:04:07;;;;;;;1999.90;999.90;;;;;;;15.48;37.50;101962.97;15679327;28;20091;-61
2021/11/22 13:11:46;;;;;;;1999.90;999.90;;;;;;;12.01;44.76;101958.03;15679200;28;20131;-62
2021/11/22 13:19:22;;;;;;;1999.90;999.90;;;;;;;10.45;49.33;101968.13;15710512;28;20045;-62
2021/11/22 13:26:56;;;;;;;1999.90;999.90;;;;;;;9.95;50.72;101956.50;15677947;28;20068;-62
2021/11/22 13:34:33;;;;;;;1999.90;999.90;;;;;;;9.68;52.00;101974.66;15677271;28;20053;-61
2021/11/22 13:42:09;;;;;;;1999.90;999.90;;;;;;;9.36;51.25;101968.91;15674990;28;20055;-62
2021/11/22 13:49:47;;;;;;;1999.90;999.90;;;;;;;8.77;52.24;101995.91;15676442;28;20103;-62
2021/11/22 13:57:23;;;;;;;1999.90;999.90;;;;;;;8.65;51.80;101999.06;15673750;28;20503;-62
2021/11/22 14:04:59;;;;;;;1999.90;999.90;;;;;;;9.06;51.17;102001.50;15658810;28;20137;-60
2021/11/22 14:12:34;;;;;;;1999.90;999.90;;;;;;;8.48;52.98;102004.16;15676719;28;20250;-62
2021/11/22 14:20:12;;;;;;;1999.90;999.90;;;;;;;8.41;52.59;102011.16;15673014;28;20517;-61
2021/11/22 14:27:45;;;;;;;1999.90;999.90;;;;;;;8.42;52.86;102032.28;15674027;28;20071;-60
2021/11/22 14:35:23;;;;;;;1999.90;999.90;;;;;;;8.44;53.22;102030.91;15672689;28;20041;-59
2021/11/22 14:43:10;;;;;;;1999.90;999.90;;;;;;;8.53;52.87;102040.28;15671597;28;20037;-58
2021/11/22 14:50:44;;;;;;;1999.90;999.90;;;;;;;8.18;54.29;102052.41;15671093;28;20076;-62
2021/11/22 14:58:17;;;;;;;1999.90;999.90;;;;;;;8.19;53.56;102056.00;15672521;28;20367;-60
2021/11/22 15:05:51;;;;;;;1999.90;999.90;;;;;;;8.10;54.05;102059.38;15671542;28;20489;-61
2021/11/22 15:13:25;;;;;;;1999.90;999.90;;;;;;;7.64;55.12;102069.81;15670080;28;20041;-61
2021/11/22 15:21:00;;;;;;;1999.90;999.90;;;;;;;7.63;54.76;102067.31;15671121;28;20041;-59
2021/11/22 15:28:34;;;;;;;1999.90;999.90;;;;;;;7.34;56.21;102055.94;15670849;28;20060;-58
2021/11/22 15:36:08;;;;;;;1999.90;999.90;;;;;;;7.32;56.12;102081.22;15670551;28;20084;-60
2021/11/22 15:43:41;;;;;;;1999.90;999.90;;;;;;;7.07;57.53;102082.03;15670051;28;20091;-61
2021/11/22 15:51:15;;;;;;;1999.90;999.90;;;;;;;6.88;57.57;102087.31;15670689;28;20190;-60
2021/11/22 15:58:48;;;;;;;1999.90;999.90;;;;;;;6.57;58.07;102103.06;15670219;28;20037;-60
2021/11/22 16:06:23;;;;;;;1999.90;999.90;;;;;;;6.51;58.52;102100.53;15668815;28;20045;-56
2021/11/22 16:13:56;;;;;;;1999.90;999.90;;;;;;;6.44;58.27;102113.78;15668049;28;20414;-59
2021/11/22 16:21:30;;;;;;;1999.90;999.90;;;;;;;6.28;58.65;102119.28;15681087;28;20439;-57
2021/11/22 16:29:04;;;;;;;1999.90;999.90;;;;;;;6.13;59.10;102123.91;15672557;28;20041;-58
2021/11/22 16:36:42;;;;;;;1999.90;999.90;;;;;;;6.00;59.89;102137.16;15672137;28;20142;-58
2021/11/22 16:44:17;;;;;;;1999.90;999.90;;;;;;;5.79;59.59;102140.84;15641415;28;20056;-59
2021/11/22 16:51:52;;;;;;;1999.90;999.90;;;;;;;5.83;59.60;102138.38;15639822;28;20049;-56
2021/11/22 16:59:25;;;;;;;1999.90;999.90;;;;;;;5.68;59.84;102147.44;15657352;28;20041;-56
2021/11/22 17:07:00;;;;;;;1999.90;999.90;;;;;;;5.58;60.54;102145.41;15641455;28;20114;-58
2021/11/22 17:14:33;;;;;;;1999.90;999.90;;;;;;;5.33;61.32;102143.28;15672783;28;20051;-58
2021/11/22 17:22:08;;;;;;;1999.90;999.90;;;;;;;5.27;61.93;102157.31;15672318;28;20049;-60
2021/11/22 17:29:43;;;;;;;1999.90;999.90;;;;;;;5.06;61.78;102156.28;15641694;28;20080;-58
2021/11/22 17:37:17;;;;;;;1999.90;999.90;;;;;;;4.91;62.32;102162.50;15661971;28;20182;-58
2021/11/22 17:44:51;;;;;;;1999.90;999.90;;;;;;;4.87;62.59;102170.47;15643203;28;20097;-61
2021/11/22 17:52:25;;;;;;;1999.90;999.90;;;;;;;4.73;62.74;102171.16;15633395;28;20071;-57
2021/11/22 17:59:58;;;;;;;1999.90;999.90;;;;;;;4.63;62.91;102191.22;15658075;28;20049;-57
2021/11/22 18:07:33;;;;;;;1999.90;999.90;;;;;;;4.47;63.42;102175.50;15651261;28;20044;-59
2021/11/22 18:15:06;;;;;;;1999.90;999.90;;;;;;;4.33;63.50;102177.81;15629148;28;20052;-58
2021/11/22 18:22:41;;;;;;;1999.90;999.90;;;;;;;4.27;64.24;102174.19;15647742;28;20040;-58
2021/11/22 18:30:14;;;;;;;1999.90;999.90;;;;;;;4.20;64.31;102180.97;15630026;28;20052;-56
2021/11/22 18:37:49;;;;;;;1999.90;999.90;;;;;;;4.09;64.30;102195.72;15663872;28;20594;-61
2021/11/22 18:45:22;;;;;;;1999.90;999.90;;;;;;;3.95;64.98;102181.41;15668835;28;20037;-57
2021/11/22 18:52:56;;;;;;;1999.90;999.90;;;;;;;3.85;64.86;102187.63;15651351;28;20071;-58
2021/11/22 19:00:30;;;;;;;1999.90;999.90;;;;;;;3.79;65.22;102188.66;15671762;28;20485;-56
2021/11/22 19:08:05;;;;;;;1999.90;999.90;;;;;;;3.71;65.56;102192.66;15654382;28;20413;-57
2021/11/22 19:15:38;;;;;;;1999.90;999.90;;;;;;;3.65;65.91;102193.69;15643150;28;20041;-58
2021/11/22 19:23:16;;;;;;;1999.90;999.90;;;;;;;3.59;65.61;102188.31;15652593;28;20050;-60
2021/11/22 19:30:49;;;;;;;1999.90;999.90;;;;;;;3.40;66.11;102196.81;15616218;28;20046;-57
2021/11/22 19:38:25;;;;;;;1999.90;999.90;;;;;;;3.40;65.84;102213.38;15659716;28;20470;-57
2021/11/22 19:45:58;;;;;;;1999.90;999.90;;;;;;;3.31;66.39;102220.38;15631993;28;20170;-58
2021/11/22 19:53:34;;;;;;;1999.90;999.90;;;;;;;3.31;66.34;102212.09;15658872;28;20137;-58
2021/11/22 20:01:06;;;;;;;1999.90;999.90;;;;;;;3.26;66.27;102216.72;15687074;28;20053;-61
2021/11/22 20:08:48;;;;;;;1999.90;999.90;;;;;;;3.27;66.56;102223.91;15656505;28;20484;-59
2021/11/22 20:16:24;;;;;;;1999.90;999.90;;;;;;;3.17;66.87;102225.38;15641185;28;20139;-58
2021/11/22 20:23:59;;;;;;;1999.90;999.90;;;;;;;3.18;66.75;102232.56;15677176;28;20041;-60
2021/11/22 20:31:32;;;;;;;1999.90;999.90;;;;;;;3.14;67.09;102238.84;15679907;28;20491;-58
2021/11/22 20:39:07;;;;;;;1999.90;999.90;;;;;;;3.15;66.87;102241.34;15653321;28;20095;-59
2021/11/22 20:46:41;;;;;;;1999.90;999.90;;;;;;;3.00;67.49;102230.00;15679017;28;20052;-61
2021/11/22 20:54:15;;;;;;;1999.90;999.90;;;;;;;3.06;66.83;102237.31;15662285;28;20473;-58
2021/11/22 21:01:50;;;;;;;1999.90;999.90;;;;;;;2.94;67.17;102249.47;15665690;28;20175;-59
2021/11/22 21:09:29;;;;;;;1999.90;999.90;;;;;;;2.94;67.47;102255.81;15676665;28;20124;-59
2021/11/22 21:17:02;;;;;;;1999.90;999.90;;;;;;;2.87;67.52;102255.13;15668443;28;20084;-59
2021/11/22 21:24:37;;;;;;;1999.90;999.90;;;;;;;2.87;67.79;102253.19;15637331;28;20487;-57
2021/11/22 21:32:10;;;;;;;1999.90;999.90;;;;;;;2.86;67.94;102261.72;15653707;28;20107;-57
2021/11/22 21:39:44;;;;;;;1999.90;999.90;;;;;;;2.71;68.27;102256.72;15625716;28;20089;-59
2021/11/22 21:47:17;;;;;;;1999.90;999.90;;;;;;;2.60;68.47;102261.19;15644727;28;20049;-59
2021/11/22 21:54:51;;;;;;;1999.90;999.90;;;;;;;2.62;69.12;102271.97;15653231;28;20045;-57
2021/11/22 22:02:27;;;;;;;1999.90;999.90;;;;;;;2.64;69.42;102263.44;15635328;28;20111;-59
2021/11/22 22:10:05;;;;;;;1999.90;999.90;;;;;;;2.48;69.15;102245.72;15661418;22;20049;-82
2021/11/22 22:25:36;;;;;;;1999.90;999.90;;;;;;;2.52;70.07;102242.25;15636302;23;20049;-71
2021/11/22 22:33:10;;;;;;;1999.90;999.90;;;;;;;2.34;70.66;102244.31;15650890;28;20051;-70
2021/11/22 22:40:44;;;;;;;1999.90;999.90;;;;;;;2.50;70.39;102229.78;15607982;28;20060;-70
2021/11/22 22:48:17;;;;;;;1999.90;999.90;;;;;;;2.31;70.67;102196.88;15610806;28;20033;-70
2021/11/22 22:55:51;;;;;;;1999.90;999.90;;;;;;;2.35;71.15;102188.13;15611335;28;20073;-70
2021/11/22 23:03:27;;;;;;;1999.90;999.90;;;;;;;2.29;72.44;102187.16;15628169;28;20084;-69
2021/11/22 23:11:02;;;;;;;1999.90;999.90;;;;;;;2.40;72.26;102180.81;15621489;28;20071;-71
2021/11/22 23:18:35;;;;;;;1999.90;999.90;;;;;;;2.15;72.80;102185.75;15612320;28;20465;-70
2021/11/22 23:26:10;;;;;;;1999.90;999.90;;;;;;;2.43;72.63;102187.75;15648371;28;20267;-71
2021/11/22 23:33:42;;;;;;;1999.90;999.90;;;;;;;2.48;71.97;102193.38;15622095;28;20481;-70
2021/11/22 23:41:17;;;;;;;1999.90;999.90;;;;;;;2.45;72.11;102193.84;15643122;28;20072;-70
2021/11/22 23:48:50;;;;;;;1999.90;999.90;;;;;;;2.40;72.41;102182.72;15638226;28;20372;-70
2021/11/22 23:56:27;;;;;;;1999.90;999.90;;;;;;;2.47;72.14;102187.03;15634303;28;20045;-71
